OOCL California — VRWC8 — position and weather

sailwx.info

Track history (hours):
 
Tides and Currents Weather Stations Pressure Air Temp Water Temp Dewpoint Dewpoint Depression Visibility Wind Speed Wind Dir Waves Ship Positions

OOCL California

Last reported at 2014-Oct-17 02:33 UTC. Time now 2014-Oct-23 02:33 UTC.
Position N 31°05' E 122°32'.

Length 276 m; beam 40 m; draft 14 m.

Type: Cargo ship. MMSI: 477704000.

Date/timePositionNaut miles runAvg speedWind from/ knotsBaromVisibWave heightAir tempDewpointWater temp
2014-Oct-17 02:33N 31°05' E 122°32'3212.8
2014-Oct-17 00:04N 31°15' E 121°57'712.7
2014-Oct-16 23:30N 31°17' E 121°49'8 7.4
2014-Oct-16 22:25N 31°20' E 121°40'0 0.0
2014-Oct-16 21:13N 31°20' E 121°40'0 0.0
2014-Oct-16 17:31N 31°20' E 121°40'0 0.0
2014-Oct-16 16:31N 31°20' E 121°40'0 0.0
2014-Oct-16 15:25N 31°20' E 121°40'0 0.0
2014-Oct-16 14:31N 31°20' E 121°40'0 0.0
2014-Oct-16 12:25N 31°20' E 121°40'0 0.0
2014-Oct-16 11:13N 31°20' E 121°40'0 0.0
2014-Oct-16 10:31N 31°20' E 121°40'4 4.1
2014-Oct-16 09:32N 31°19' E 121°44'1010.5
2014-Oct-16 08:33N 31°15' E 121°56'2311.2
2014-Oct-16 06:29N 31°06' E 122°20'2110.2
2014-Oct-16 04:23N 31°06' E 122°45'1111.5
2014-Oct-16 03:23N 30°57' E 122°53'1012.2
2014-Oct-16 02:33N 30°48' E 122°57'1212.3
2014-Oct-16 01:33N 30°37' E 123°04'41211.7
2014-Oct-14 14:28N 24°37' E 119°18'7 7.8
2014-Oct-14 13:33N 24°32' E 119°12'49 8.0
2014-Oct-14 07:25N 23°60' E 118°32'8 9.0
2014-Oct-14 06:32N 23°54' E 118°25'10 9.7
2014-Oct-14 05:32N 23°48' E 118°17'9 9.5
2014-Oct-14 04:33N 23°42' E 118°09'1414.0
2014-Oct-14 03:33N 23°33' E 117°58'7710.8
2014-Oct-13 20:23N 22°49' E 116°49'15211.0
2014-Oct-13 06:33N 22°19' E 114°07'1 0.1
2014-Oct-12 20:11N 22°20' E 114°08'1 0.2
2014-Oct-12 17:21N 22°19' E 114°07'32610.9
2014-Oct-11 11:25N 22°31' E 119°59'1011.7
2014-Oct-11 10:33N 22°32' E 120°10'9 8.6
2014-Oct-11 09:33N 22°33' E 120°19'1 1.1
2014-Oct-11 08:33N 22°34' E 120°18'0 0.1
2014-Oct-11 07:33N 22°34' E 120°18'0 0.0
2014-Oct-11 06:33N 22°34' E 120°18'0 0.1
2014-Oct-11 05:33N 22°34' E 120°18'0 0.0
2014-Oct-11 04:33N 22°34' E 120°18'0 0.1
2014-Oct-11 03:33N 22°34' E 120°18'0 0.0
2014-Oct-11 02:21N 22°34' E 120°18'0 0.0
2014-Oct-11 01:27N 22°34' E 120°18'0 0.0
2014-Oct-11 00:21N 22°34' E 120°18'0 0.0
2014-Oct-10 23:33N 22°34' E 120°18'0 0.1
2014-Oct-10 22:33N 22°34' E 120°18'0 0.0
2014-Oct-10 21:33N 22°34' E 120°18'3 2.9
2014-Oct-10 20:33N 22°32' E 120°16'7 7.0
2014-Oct-10 19:33N 22°30' E 120°09'5 4.7
2014-Oct-10 18:33N 22°25' E 120°09'8 7.9
2014-Oct-10 17:33N 22°17' E 120°09'9 8.9
2014-Oct-10 16:33N 22°10' E 120°14'  
2014-Oct-07 09:00N 10°36' E 132°24'   250 / 221001.4 5.4 3.027.024.331.0
Track history (hours):
 
Tides and Currents Weather Stations Pressure Air Temp Water Temp Dewpoint Dewpoint Depression Visibility Wind Speed Wind Dir Waves Ship Positions

OOCL California

Last reported at 2014-Oct-17 02:33 UTC. Time now 2014-Oct-23 02:33 UTC.
Position N 31°05' E 122°32'.

Length 276 m; beam 40 m; draft 14 m.

Type: Cargo ship. MMSI: 477704000.

Date/timePositionNaut miles runAvg speedWind from/ knotsBaromVisibWave heightAir tempDewpointWater temp
2014-Oct-17 02:33N 31°05' E 122°32'3212.8
2014-Oct-17 00:04N 31°15' E 121°57'712.7
2014-Oct-16 23:30N 31°17' E 121°49'8 7.4
2014-Oct-16 22:25N 31°20' E 121°40'0 0.0
2014-Oct-16 21:13N 31°20' E 121°40'0 0.0
2014-Oct-16 17:31N 31°20' E 121°40'0 0.0
2014-Oct-16 16:31N 31°20' E 121°40'0 0.0
2014-Oct-16 15:25N 31°20' E 121°40'0 0.0
2014-Oct-16 14:31N 31°20' E 121°40'0 0.0
2014-Oct-16 12:25N 31°20' E 121°40'0 0.0
2014-Oct-16 11:13N 31°20' E 121°40'0 0.0
2014-Oct-16 10:31N 31°20' E 121°40'4 4.1
2014-Oct-16 09:32N 31°19' E 121°44'1010.5
2014-Oct-16 08:33N 31°15' E 121°56'2311.2
2014-Oct-16 06:29N 31°06' E 122°20'2110.2
2014-Oct-16 04:23N 31°06' E 122°45'1111.5
2014-Oct-16 03:23N 30°57' E 122°53'1012.2
2014-Oct-16 02:33N 30°48' E 122°57'1212.3
2014-Oct-16 01:33N 30°37' E 123°04'41211.7
2014-Oct-14 14:28N 24°37' E 119°18'7 7.8
2014-Oct-14 13:33N 24°32' E 119°12'49 8.0
2014-Oct-14 07:25N 23°60' E 118°32'8 9.0
2014-Oct-14 06:32N 23°54' E 118°25'10 9.7
2014-Oct-14 05:32N 23°48' E 118°17'9 9.5
2014-Oct-14 04:33N 23°42' E 118°09'1414.0
2014-Oct-14 03:33N 23°33' E 117°58'7710.8
2014-Oct-13 20:23N 22°49' E 116°49'15211.0
2014-Oct-13 06:33N 22°19' E 114°07'1 0.1
2014-Oct-12 20:11N 22°20' E 114°08'1 0.2
2014-Oct-12 17:21N 22°19' E 114°07'32610.9
2014-Oct-11 11:25N 22°31' E 119°59'1011.7
2014-Oct-11 10:33N 22°32' E 120°10'9 8.6
2014-Oct-11 09:33N 22°33' E 120°19'1 1.1
2014-Oct-11 08:33N 22°34' E 120°18'0 0.1
2014-Oct-11 07:33N 22°34' E 120°18'0 0.0
2014-Oct-11 06:33N 22°34' E 120°18'0 0.1
2014-Oct-11 05:33N 22°34' E 120°18'0 0.0
2014-Oct-11 04:33N 22°34' E 120°18'0 0.1
2014-Oct-11 03:33N 22°34' E 120°18'0 0.0
2014-Oct-11 02:21N 22°34' E 120°18'0 0.0
2014-Oct-11 01:27N 22°34' E 120°18'0 0.0
2014-Oct-11 00:21N 22°34' E 120°18'0 0.0
2014-Oct-10 23:33N 22°34' E 120°18'0 0.1
2014-Oct-10 22:33N 22°34' E 120°18'0 0.0
2014-Oct-10 21:33N 22°34' E 120°18'3 2.9
2014-Oct-10 20:33N 22°32' E 120°16'7 7.0
2014-Oct-10 19:33N 22°30' E 120°09'5 4.7
2014-Oct-10 18:33N 22°25' E 120°09'8 7.9
2014-Oct-10 17:33N 22°17' E 120°09'9 8.9
2014-Oct-10 16:33N 22°10' E 120°14'  
2014-Oct-07 09:00N 10°36' E 132°24'   250 / 221001.4 5.4 3.027.024.331.0

Dump ship's entire track history